Time;durP1;ratioP1;P1;durP2;ratioP2;P2;SDS_P1;SDS_P2;PMS_P1;PMS_P2;Temp;Humidity;BMP_temperature;BMP_pressure;BME280_temperature;BME280_humidity;BME280_pressure;Samples;Min_cycle;Max_cycle;Signal;HPM_P1;HPM_P2
2022/12/11 00:00:02;;;;;;;1999.90;999.90;;;;;;;;;;5028202;28;20205;-78
2022/12/11 00:02:28;;;;;;;1999.90;999.90;;;6.00;41.80;;;;;;5055018;28;20045;-77
2022/12/11 00:04:54;;;;;;;1999.90;999.90;;;4.50;68.40;;;;;;5062998;28;20037;-77
2022/12/11 00:07:20;;;;;;;1999.90;999.90;;;4.80;65.40;;;;;;5031835;28;20049;-82
2022/12/11 00:09:45;;;;;;;1999.90;999.90;;;4.70;51.80;;;;;;5042277;28;20131;-77
2022/12/11 00:12:11;;;;;;;1999.90;999.90;;;4.20;87.80;;;;;;5053835;28;20045;-77
2022/12/11 00:14:37;;;;;;;1999.90;999.90;;;4.90;99.90;;;;;;5052648;28;20040;-77
2022/12/11 00:17:02;;;;;;;1999.90;999.90;;;3.60;52.20;;;;;;5047044;28;20073;-77
2022/12/11 00:19:28;;;;;;;1999.90;999.90;;;;;;;;;;5052885;28;20491;-82
2022/12/11 00:21:54;;;;;;;1999.90;999.90;;;4.30;98.80;;;;;;5059737;28;20439;-76
2022/12/11 00:24:20;;;;;;;1999.90;999.90;;;5.00;99.90;;;;;;5042080;28;20071;-77
2022/12/11 00:26:45;;;;;;;1999.90;999.90;;;6.10;49.80;;;;;;5058773;28;20082;-78
2022/12/11 00:29:13;;;;;;;1999.90;999.90;;;;;;;;;;5051663;28;20055;-76
2022/12/11 00:31:40;;;;;;;1999.90;999.90;;;3.30;74.50;;;;;;5064553;28;20047;-77
2022/12/11 00:34:07;;;;;;;1999.90;999.90;;;4.90;48.50;;;;;;5046703;28;20116;-78
2022/12/11 00:36:33;;;;;;;1999.90;999.90;;;4.30;63.30;;;;;;5047614;28;20040;-77
2022/12/11 00:39:00;;;;;;;1999.90;999.90;;;5.50;88.40;;;;;;5053557;28;20055;-76
2022/12/11 00:41:26;;;;;;;1999.90;999.90;;;5.90;89.10;;;;;;5047801;28;20131;-79
2022/12/11 00:43:52;;;;;;;1999.90;999.90;;;6.20;55.40;;;;;;5049891;28;20565;-83
2022/12/11 00:46:18;;;;;;;1999.90;999.90;;;;;;;;;;5050547;28;20501;-76
2022/12/11 00:48:45;;;;;;;1999.90;999.90;;;;;;;;;;5067856;28;20103;-76
2022/12/11 00:51:11;;;;;;;1999.90;999.90;;;4.80;41.60;;;;;;5055487;28;20392;-76
2022/12/11 00:53:38;;;;;;;1999.90;999.90;;;4.60;97.30;;;;;;5050186;28;20040;-77
2022/12/11 00:56:18;;;;;;;1999.90;999.90;;;7.00;45.50;;;;;;5048053;28;20036;-77
2022/12/11 00:58:45;;;;;;;1999.90;999.90;;;5.10;84.90;;;;;;5064144;28;20056;-76
2022/12/11 01:01:15;;;;;;;1999.90;999.90;;;6.10;83.00;;;;;;5053440;28;20492;-76
2022/12/11 01:03:41;;;;;;;1999.90;999.90;;;5.10;94.10;;;;;;5062524;28;20067;-75
2022/12/11 01:06:11;;;;;;;1999.90;999.90;;;8.30;83.80;;;;;;5046120;28;20040;-76
2022/12/11 01:08:37;;;;;;;1999.90;999.90;;;4.10;99.90;;;;;;5047081;28;20490;-76
2022/12/11 01:11:05;;;;;;;1999.90;999.90;;;4.50;99.20;;;;;;5046042;28;20081;-79
2022/12/11 01:13:31;;;;;;;1999.90;999.90;;;4.80;93.40;;;;;;5074444;28;20048;-75
2022/12/11 01:15:57;;;;;;;1999.90;999.90;;;5.90;99.90;;;;;;5050225;28;20041;-75
2022/12/11 01:18:23;;;;;;;1999.90;999.90;;;;;;;;;;5045761;28;20390;-78
2022/12/11 01:20:48;;;;;;;1999.90;999.90;;;5.90;99.90;;;;;;5048476;28;20063;-78
2022/12/11 01:23:14;;;;;;;1999.90;999.90;;;;;;;;;;5049762;28;20470;-76
2022/12/11 01:25:41;;;;;;;1999.90;999.90;;;;;;;;;;5055438;28;20048;-75
2022/12/11 01:28:07;;;;;;;1999.90;999.90;;;4.90;81.70;;;;;;5066893;28;20499;-75
2022/12/11 01:30:33;;;;;;;1999.90;999.90;;;7.20;99.90;;;;;;5061239;28;20521;-75
2022/12/11 01:32:59;;;;;;;1999.90;999.90;;;4.00;99.90;;;;;;5054729;28;20311;-75
2022/12/11 01:35:25;;;;;;;1999.90;999.90;;;5.10;99.90;;;;;;5060828;28;20110;-75
2022/12/11 01:37:51;;;;;;;1999.90;999.90;;;;;;;;;;5057723;28;20116;-76
2022/12/11 01:40:18;;;;;;;1999.90;999.90;;;5.00;99.90;;;;;;5042690;28;20500;-75
2022/12/11 01:42:45;;;;;;;1999.90;999.90;;;4.60;99.90;;;;;;5048342;28;20492;-75
2022/12/11 01:45:26;;;;;;;1999.90;999.90;;;5.10;99.90;;;;;;5036048;28;20350;-74
2022/12/11 01:47:56;;;;;;;1999.90;999.90;;;4.10;99.90;;;;;;5048299;28;20072;-75
2022/12/11 01:50:23;;;;;;;1999.90;999.90;;;6.70;99.90;;;;;;5054479;28;20053;-74
2022/12/11 01:52:49;;;;;;;1999.90;999.90;;;3.40;99.90;;;;;;5046451;28;20065;-75
2022/12/11 01:55:17;;;;;;;1999.90;999.90;;;4.70;99.90;;;;;;5050303;28;20532;-74
2022/12/11 01:57:46;;;;;;;1999.90;999.90;;;5.00;99.90;;;;;;5046037;28;20570;-71
2022/12/11 02:00:12;;;;;;;1999.90;999.90;;;5.00;99.90;;;;;;5047941;28;20043;-73
2022/12/11 02:02:38;;;;;;;1999.90;999.90;;;7.20;99.90;;;;;;5047200;28;20128;-73
2022/12/11 02:05:06;;;;;;;1999.90;999.90;;;5.60;99.90;;;;;;5048148;28;22530;-74
2022/12/11 02:07:36;;;;;;;;;;;5.00;99.90;;;;;;5050195;28;20067;-73
2022/12/11 02:10:02;;;;;;;1999.90;999.90;;;6.60;99.90;;;;;;5054617;28;19970;-74
2022/12/11 02:12:51;;;;;;;1999.90;999.90;;;5.10;99.90;;;;;;5051566;28;20405;-77
2022/12/11 02:15:34;;;;;;;1999.90;999.90;;;5.20;99.90;;;;;;5052665;28;20488;-77
2022/12/11 02:18:30;;;;;;;1999.90;999.90;;;4.90;99.90;;;;;;5044126;28;20045;-76
2022/12/11 02:21:07;;;;;;;1999.90;999.90;;;5.90;99.90;;;;;;5049460;28;20041;-73
2022/12/11 02:24:10;;;;;;;1999.90;999.90;;;5.20;99.90;;;;;;5046510;28;20164;-73
2022/12/11 02:27:10;;;;;;;1999.90;999.90;;;4.40;99.90;;;;;;5050078;28;20095;-73
2022/12/11 02:29:48;;;;;;;1999.90;999.90;;;4.00;99.90;;;;;;5045306;28;20133;-73
2022/12/11 02:32:22;;;;;;;1999.90;999.90;;;5.10;99.90;;;;;;5043459;28;20405;-73
2022/12/11 02:34:58;;;;;;;1999.90;999.90;;;3.50;99.90;;;;;;5042648;28;20048;-77
2022/12/11 02:37:28;;;;;;;1999.90;999.90;;;5.20;99.90;;;;;;5051531;28;20037;-74
2022/12/11 02:39:55;;;;;;;1999.90;999.90;;;5.30;99.90;;;;;;5045028;28;20828;-73
2022/12/11 02:42:22;;;;;;;1999.90;999.90;;;5.60;99.90;;;;;;5065032;28;20082;-74
2022/12/11 02:44:49;;;;;;;1999.90;999.90;;;3.50;99.90;;;;;;5060818;28;20175;-73
2022/12/11 02:47:18;;;;;;;1999.90;999.90;;;4.20;99.90;;;;;;5063392;28;20045;-73
2022/12/11 02:49:47;;;;;;;1999.90;999.90;;;4.60;99.90;;;;;;5049481;28;20109;-74
2022/12/11 02:52:16;;;;;;;1999.90;999.90;;;5.20;99.90;;;;;;5051897;28;20426;-73
2022/12/11 02:54:43;;;;;;;1999.90;999.90;;;6.10;99.90;;;;;;5049387;28;20052;-73
2022/12/11 02:57:22;;;;;;;1999.90;999.90;;;4.70;99.90;;;;;;5045815;28;20048;-73
2022/12/11 02:59:47;;;;;;;1999.90;999.90;;;4.10;99.90;;;;;;5046533;28;20182;-73
2022/12/11 03:02:15;;;;;;;1999.90;999.90;;;4.30;99.90;;;;;;5046179;28;20124;-72
2022/12/11 03:04:43;;;;;;;1999.90;999.90;;;4.50;99.90;;;;;;5044227;28;20052;-73
2022/12/11 03:07:16;;;;;;;1999.90;999.90;;;6.70;99.90;;;;;;5060452;28;20474;-76
2022/12/11 03:09:45;;;;;;;1999.90;999.90;;;5.50;99.90;;;;;;5048881;28;20045;-76
2022/12/11 03:12:17;;;;;;;1999.90;999.90;;;4.80;99.90;;;;;;5062173;28;20051;-72
2022/12/11 03:14:43;;;;;;;1999.90;999.90;;;6.00;1.00;;;;;;5084771;28;20048;-72
2022/12/11 03:17:21;;;;;;;1999.90;999.90;;;6.70;99.90;;;;;;5053325;28;20083;-72
2022/12/11 03:20:24;;;;;;;1999.90;999.90;;;6.50;1.00;;;;;;5050979;28;20072;-73
2022/12/11 03:23:29;;;;;;;1999.90;999.90;;;3.90;1.00;;;;;;5026837;28;20067;-76
2022/12/11 03:26:22;;;;;;;1999.90;999.90;;;5.30;1.00;;;;;;5061919;28;20063;-72
2022/12/11 03:29:03;;;;;;;1999.90;999.90;;;7.30;1.00;;;;;;5049095;28;20071;-73
2022/12/11 03:31:57;;;;;;;1999.90;999.90;;;5.00;1.00;;;;;;5056495;28;20494;-72
2022/12/11 03:34:58;;;;;;;1999.90;999.90;;;5.00;1.00;;;;;;5065588;28;20079;-72
2022/12/11 03:37:27;;;;;;;1999.90;999.90;;;5.20;1.00;;;;;;5045660;28;20096;-72
2022/12/11 03:39:58;;;;;;;1999.90;999.90;;;4.50;1.00;;;;;;5061440;28;21563;-76
2022/12/11 03:42:25;;;;;;;1999.90;999.90;;;5.00;1.00;;;;;;5062657;28;20060;-72
2022/12/11 03:44:53;;;;;;;1999.90;999.90;;;4.50;25.20;;;;;;5062012;28;20044;-72
2022/12/11 03:47:22;;;;;;;1999.90;999.90;;;5.40;1.00;;;;;;5065680;28;20107;-72
2022/12/11 03:49:50;;;;;;;1999.90;999.90;;;5.40;1.00;;;;;;5066872;28;20059;-72
2022/12/11 03:52:16;;;;;;;1999.90;999.90;;;5.20;1.00;;;;;;5057668;28;20057;-72
2022/12/11 03:54:46;;;;;;;1999.90;999.90;;;5.20;1.00;;;;;;5067288;28;20055;-72
2022/12/11 03:57:15;;;;;;;1999.90;999.90;;;5.80;54.20;;;;;;5064751;28;20046;-72
2022/12/11 03:59:41;;;;;;;1999.90;999.90;;;7.90;1.00;;;;;;5061659;28;20400;-73
2022/12/11 04:02:09;;;;;;;1999.90;999.90;;;5.00;52.00;;;;;;5057969;28;20045;-73
2022/12/11 04:04:39;;;;;;;;;;;4.90;1.00;;;;;;5076923;28;20044;-74
2022/12/11 04:07:04;;;;;;;1999.90;999.90;;;5.40;47.80;;;;;;5062856;28;19924;-72
2022/12/11 04:09:30;;;;;;;1999.90;999.90;;;4.90;52.10;;;;;;5079921;28;20108;-73
2022/12/11 04:11:56;;;;;;;1999.90;999.90;;;;;;;;;;5070064;28;20058;-81
2022/12/11 04:17:06;;;;;;;1999.90;999.90;;;5.00;64.70;;;;;;5062526;28;20071;-73
2022/12/11 04:25:03;;;;;;;1999.90;999.90;;;7.10;26.60;;;;;;5054225;28;20044;-72
2022/12/11 04:30:16;;;;;;;1999.90;999.90;;;5.40;8.60;;;;;;5066882;28;20052;-72
2022/12/11 04:32:41;;;;;;;1999.90;999.90;;;6.00;21.80;;;;;;5063548;28;20049;-77
2022/12/11 04:35:08;;;;;;;1999.90;999.90;;;5.00;65.70;;;;;;5064001;28;20044;-72
2022/12/11 04:37:35;;;;;;;1999.90;999.90;;;5.00;11.50;;;;;;5060912;28;20043;-72
2022/12/11 04:40:01;;;;;;;1999.90;999.90;;;4.90;43.50;;;;;;5070203;28;20306;-73
2022/12/11 04:42:27;;;;;;;1999.90;999.90;;;4.70;99.00;;;;;;5063861;28;20394;-72
2022/12/11 04:44:52;;;;;;;1999.90;999.90;;;6.40;76.00;;;;;;5057276;28;20052;-73
2022/12/11 04:47:18;;;;;;;1999.90;999.90;;;6.10;99.90;;;;;;5042532;28;20040;-73
2022/12/11 04:49:44;;;;;;;1999.90;999.90;;;5.30;97.90;;;;;;5067296;28;20067;-73
2022/12/11 04:52:09;;;;;;;1999.90;999.90;;;5.80;99.90;;;;;;5061454;28;20045;-73
2022/12/11 04:54:35;;;;;;;1999.90;999.90;;;4.80;99.90;;;;;;5053601;28;20497;-78
2022/12/11 04:57:01;;;;;;;1999.90;999.90;;;6.80;72.50;;;;;;5057960;28;20632;-72
2022/12/11 04:59:27;;;;;;;1999.90;999.90;;;5.40;73.60;;;;;;5063352;28;20045;-72
2022/12/11 05:01:52;;;;;;;1999.90;999.90;;;7.50;93.70;;;;;;5052621;28;20056;-72
2022/12/11 05:04:18;;;;;;;1999.90;999.90;;;6.30;96.30;;;;;;5059330;28;20106;-73
2022/12/11 05:06:44;;;;;;;1999.90;999.90;;;6.20;52.40;;;;;;5048244;28;20037;-76
2022/12/11 05:09:10;;;;;;;1999.90;999.90;;;8.80;13.70;;;;;;5050035;28;20045;-76
2022/12/11 05:11:36;;;;;;;1999.90;999.90;;;;;;;;;;5052922;28;20128;-73
2022/12/11 05:14:02;;;;;;;1999.90;999.90;;;5.60;38.00;;;;;;5054995;28;20048;-72
2022/12/11 05:16:28;;;;;;;1999.90;999.90;;;6.40;15.20;;;;;;5056995;28;20184;-73
2022/12/11 05:18:54;;;;;;;1999.90;999.90;;;5.50;93.40;;;;;;5050160;28;20091;-73
2022/12/11 05:21:20;;;;;;;1999.90;999.90;;;;;;;;;;5047448;28;20041;-72
2022/12/11 05:23:45;;;;;;;1999.90;999.90;;;5.20;52.70;;;;;;5050056;28;20084;-73
2022/12/11 05:26:14;;;;;;;1999.90;999.90;;;4.00;28.80;;;;;;5067774;28;20079;-73
2022/12/11 05:28:40;;;;;;;1999.90;999.90;;;4.40;41.30;;;;;;5051673;28;20397;-75
2022/12/11 05:31:10;;;;;;;1999.90;999.90;;;5.10;31.30;;;;;;5047285;28;20521;-80
2022/12/11 05:33:36;;;;;;;1999.90;999.90;;;5.50;79.20;;;;;;5046765;28;20041;-73
2022/12/11 05:36:02;;;;;;;1999.90;999.90;;;5.80;86.60;;;;;;5046414;28;20051;-72
2022/12/11 05:38:28;;;;;;;1999.90;999.90;;;5.50;28.20;;;;;;5071893;28;20053;-73
2022/12/11 05:40:59;;;;;;;1999.90;999.90;;;7.40;68.10;;;;;;5070720;28;20061;-73
2022/12/11 05:43:26;;;;;;;1999.90;999.90;;;7.10;94.90;;;;;;5060345;28;20162;-73
2022/12/11 05:45:52;;;;;;;1999.90;999.90;;;5.50;29.70;;;;;;5069874;28;20451;-72
2022/12/11 05:48:17;;;;;;;1999.90;999.90;;;5.70;99.90;;;;;;5072623;28;20044;-72
2022/12/11 05:50:43;;;;;;;1999.90;999.90;;;5.50;34.70;;;;;;5060894;28;20049;-73
2022/12/11 05:53:09;;;;;;;1999.90;999.90;;;;;;;;;;5048696;28;20452;-82
2022/12/11 05:55:35;;;;;;;1999.90;999.90;;;7.50;1.00;;;;;;5045648;28;20045;-78
2022/12/11 05:58:00;;;;;;;1999.90;999.90;;;5.20;80.70;;;;;;5048271;28;20044;-75
2022/12/11 06:00:26;;;;;;;1999.90;999.90;;;8.90;31.50;;;;;;5046686;28;20044;-73
2022/12/11 06:02:52;;;;;;;1999.90;999.90;;;4.30;46.20;;;;;;5047566;28;20076;-79
2022/12/11 06:05:17;;;;;;;1999.90;999.90;;;3.60;26.30;;;;;;5049472;28;20544;-73
2022/12/11 06:07:43;;;;;;;1999.90;999.90;;;6.60;86.80;;;;;;5050689;28;20375;-73
2022/12/11 06:10:09;;;;;;;1999.90;999.90;;;5.40;39.00;;;;;;5046715;28;20367;-73
2022/12/11 06:12:35;;;;;;;1999.90;999.90;;;5.70;1.00;;;;;;5063470;28;20036;-73
2022/12/11 06:15:00;;;;;;;1999.90;999.90;;;7.10;1.00;;;;;;5058296;28;20427;-78
2022/12/11 06:17:26;;;;;;;1999.90;999.90;;;5.60;1.00;;;;;;5045034;28;20033;-73
2022/12/11 06:19:52;;;;;;;1999.90;999.90;;;5.30;1.00;;;;;;5046706;28;20102;-79
2022/12/11 06:22:18;;;;;;;1999.90;999.90;;;;;;;;;;5051718;28;20044;-78
2022/12/11 06:24:43;;;;;;;1999.90;999.90;;;5.00;57.10;;;;;;5043783;28;20048;-73
2022/12/11 06:27:09;;;;;;;1999.90;999.90;;;6.40;8.60;;;;;;5056197;28;20527;-73
2022/12/11 06:29:35;;;;;;;1999.90;999.90;;;5.50;35.10;;;;;;5047354;28;20098;-73
2022/12/11 06:32:00;;;;;;;1999.90;999.90;;;4.10;73.60;;;;;;5046452;28;20041;-74
2022/12/11 06:34:26;;;;;;;1999.90;999.90;;;6.50;53.20;;;;;;5045231;28;20052;-73
2022/12/11 06:36:52;;;;;;;1999.90;999.90;;;5.20;23.20;;;;;;5053116;28;20130;-74
2022/12/11 06:39:17;;;;;;;1999.90;999.90;;;5.10;15.90;;;;;;5049555;28;20041;-77
2022/12/11 06:41:44;;;;;;;1999.90;999.90;;;;;;;;;;5050199;28;20107;-78
2022/12/11 06:44:09;;;;;;;1999.90;999.90;;;7.80;15.40;;;;;;5051177;28;20052;-73
2022/12/11 06:46:35;;;;;;;1999.90;999.90;;;4.00;10.50;;;;;;5046499;28;20674;-73
2022/12/11 06:49:00;;;;;;;1999.90;999.90;;;4.50;9.50;;;;;;5045987;28;20385;-73
2022/12/11 06:51:26;;;;;;;1999.90;999.90;;;4.50;1.00;;;;;;5046160;28;20052;-73
2022/12/11 06:53:54;;;;;;;1999.90;999.90;;;5.60;1.00;;;;;;5054443;28;20447;-73
2022/12/11 06:56:20;;;;;;;1999.90;999.90;;;6.00;60.60;;;;;;5046737;28;20037;-74
2022/12/11 06:58:46;;;;;;;1999.90;999.90;;;4.10;4.20;;;;;;5049599;28;20240;-73
2022/12/11 07:01:21;;;;;;;1999.90;999.90;;;6.00;56.20;;;;;;5047690;28;20634;-79
2022/12/11 07:03:47;;;;;;;1999.90;999.90;;;5.20;5.60;;;;;;5045990;28;20045;-73
2022/12/11 07:06:14;;;;;;;1999.90;999.90;;;5.50;1.00;;;;;;5047066;28;20095;-73
2022/12/11 07:08:40;;;;;;;1999.90;999.90;;;3.90;21.30;;;;;;5045843;28;20041;-78
2022/12/11 07:11:09;;;;;;;1999.90;999.90;;;7.50;66.90;;;;;;5047501;28;20048;-74
2022/12/11 07:13:35;;;;;;;1999.90;999.90;;;;;;;;;;5059709;28;20063;-81
2022/12/11 07:16:03;;;;;;;1999.90;999.90;;;3.30;20.30;;;;;;5057986;28;20132;-75
2022/12/11 07:18:31;;;;;;;1999.90;999.90;;;5.30;47.70;;;;;;5059619;28;20036;-74
2022/12/11 07:20:59;;;;;;;1999.90;999.90;;;5.30;12.90;;;;;;5070081;28;20056;-74
2022/12/11 07:23:28;;;;;;;1999.90;999.90;;;5.30;26.30;;;;;;5067990;28;20072;-74
2022/12/11 07:25:54;;;;;;;1999.90;999.90;;;5.70;1.00;;;;;;5063619;28;20095;-74
2022/12/11 07:28:21;;;;;;;1999.90;999.90;;;;;;;;;;5058622;28;20037;-81
2022/12/11 07:30:47;;;;;;;1999.90;999.90;;;5.10;63.10;;;;;;5063965;28;20560;-74
2022/12/11 07:33:13;;;;;;;1999.90;999.90;;;6.70;86.90;;;;;;5054699;28;20524;-74
2022/12/11 07:35:39;;;;;;;1999.90;999.90;;;6.80;1.00;;;;;;5055382;28;20040;-73
2022/12/11 07:38:04;;;;;;;1999.90;999.90;;;6.80;35.70;;;;;;5066494;28;20401;-74
2022/12/11 07:40:30;;;;;;;1999.90;999.90;;;6.70;19.50;;;;;;5073535;28;20048;-73
2022/12/11 07:42:56;;;;;;;1999.90;999.90;;;4.50;26.00;;;;;;5071186;28;20109;-74
2022/12/11 07:45:21;;;;;;;1999.90;999.90;;;5.70;33.50;;;;;;5059942;28;20044;-74
2022/12/11 07:47:47;;;;;;;1999.90;999.90;;;5.40;58.50;;;;;;5062078;28;20139;-79
2022/12/11 07:50:13;;;;;;;1999.90;999.90;;;;;;;;;;5068574;28;20079;-74
2022/12/11 07:52:39;;;;;;;1999.90;999.90;;;5.90;99.90;;;;;;5067154;28;20052;-78
2022/12/11 07:55:05;;;;;;;1999.90;999.90;;;6.30;99.90;;;;;;5065817;28;20098;-74
2022/12/11 07:57:30;;;;;;;1999.90;999.90;;;5.60;27.40;;;;;;5070817;28;20057;-74
2022/12/11 07:59:56;;;;;;;1999.90;999.90;;;5.90;1.00;;;;;;5075337;28;20127;-73
2022/12/11 08:02:22;;;;;;;1999.90;999.90;;;5.70;80.80;;;;;;5067164;28;20076;-73
2022/12/11 08:04:48;;;;;;;1999.90;999.90;;;7.50;92.80;;;;;;5066558;28;20044;-74
2022/12/11 08:07:14;;;;;;;1999.90;999.90;;;6.20;72.50;;;;;;5059161;28;20485;-73
2022/12/11 08:09:40;;;;;;;1999.90;999.90;;;6.50;44.70;;;;;;5054032;28;20053;-73
2022/12/11 08:12:05;;;;;;;1999.90;999.90;;;7.70;48.50;;;;;;5055388;28;20539;-73
2022/12/11 08:14:31;;;;;;;1999.90;999.90;;;5.20;87.10;;;;;;5055870;28;20158;-74
2022/12/11 08:16:58;;;;;;;1999.90;999.90;;;4.90;99.90;;;;;;5074259;28;20044;-74
2022/12/11 08:19:24;;;;;;;1999.90;999.90;;;7.40;90.80;;;;;;5070996;28;20044;-73
2022/12/11 08:21:50;;;;;;;1999.90;999.90;;;4.30;99.90;;;;;;5074786;28;20047;-74
2022/12/11 08:24:19;;;;;;;1999.90;999.90;;;5.40;99.90;;;;;;5069601;28;20110;-74
2022/12/11 08:26:45;;;;;;;1999.90;999.90;;;5.00;99.90;;;;;;5054851;28;20040;-74
2022/12/11 08:29:11;;;;;;;1999.90;999.90;;;7.80;82.10;;;;;;5066095;28;20066;-79
2022/12/11 08:31:39;;;;;;;1999.90;999.90;;;7.60;74.40;;;;;;5071616;28;20416;-73
2022/12/11 08:34:04;;;;;;;1999.90;999.90;;;5.60;99.20;;;;;;5074745;28;20382;-74
2022/12/11 08:36:30;;;;;;;1999.90;999.90;;;4.20;82.50;;;;;;5070634;28;20321;-73
2022/12/11 08:38:56;;;;;;;1999.90;999.90;;;6.70;42.60;;;;;;5059074;28;20087;-74
2022/12/11 08:41:27;;;;;;;1999.90;999.90;;;7.50;59.70;;;;;;5056556;28;20080;-74
2022/12/11 08:43:54;;;;;;;1999.90;999.90;;;5.30;99.90;;;;;;5073169;28;20090;-74
2022/12/11 08:46:22;;;;;;;1999.90;999.90;;;3.70;99.90;;;;;;5068787;28;20082;-73
2022/12/11 08:48:49;;;;;;;1999.90;999.90;;;5.60;73.50;;;;;;5043859;28;20037;-74
2022/12/11 08:51:17;;;;;;;1999.90;999.90;;;6.50;57.80;;;;;;5064977;28;20063;-73
2022/12/11 08:53:43;;;;;;;1999.90;999.90;;;3.20;55.50;;;;;;5073515;28;20052;-78
2022/12/11 08:56:14;;;;;;;1999.90;999.90;;;7.40;1.00;;;;;;5069425;28;20041;-74
2022/12/11 08:58:41;;;;;;;1999.90;999.90;;;4.90;99.90;;;;;;5053522;28;20041;-74
2022/12/11 09:01:08;;;;;;;1999.90;999.90;;;7.70;78.70;;;;;;5059060;28;20388;-74
2022/12/11 09:03:34;;;;;;;1999.90;999.90;;;;;;;;;;5062152;28;20542;-74
2022/12/11 09:06:04;;;;;;;1999.90;999.90;;;5.60;99.90;;;;;;5060022;28;20101;-74
2022/12/11 09:08:30;;;;;;;1999.90;999.90;;;6.40;99.90;;;;;;5057582;28;20373;-76
2022/12/11 09:10:55;;;;;;;1999.90;999.90;;;6.40;99.90;;;;;;5062597;28;20053;-75
2022/12/11 09:13:21;;;;;;;1999.90;999.90;;;;;;;;;;5073060;28;20044;-79
2022/12/11 09:15:47;;;;;;;1999.90;999.90;;;4.70;99.90;;;;;;5054747;28;20488;-73
2022/12/11 09:18:13;;;;;;;1999.90;999.90;;;;;;;;;;5053151;28;20060;-74
2022/12/11 09:20:39;;;;;;;1999.90;999.90;;;6.50;99.90;;;;;;5063617;28;20081;-73
2022/12/11 09:23:04;;;;;;;1999.90;999.90;;;7.40;99.90;;;;;;5053991;28;20516;-74
2022/12/11 09:25:30;;;;;;;1999.90;999.90;;;4.90;99.90;;;;;;5063279;28;20044;-74
2022/12/11 09:27:55;;;;;;;1999.90;999.90;;;5.50;69.20;;;;;;5071393;28;20099;-74
2022/12/11 09:30:21;;;;;;;1999.90;999.90;;;6.60;93.90;;;;;;5080575;28;20115;-74
2022/12/11 09:32:47;;;;;;;1999.90;999.90;;;;;;;;;;5066254;28;20103;-74
2022/12/11 09:35:13;;;;;;;1999.90;999.90;;;5.50;99.90;;;;;;5055960;28;20116;-74
2022/12/11 09:37:38;;;;;;;1999.90;999.90;;;5.80;99.90;;;;;;5074034;28;20111;-74
2022/12/11 09:40:04;;;;;;;1999.90;999.90;;;5.90;99.90;;;;;;5068623;28;20480;-75
2022/12/11 09:42:55;;;;;;;1999.90;999.90;;;4.80;99.90;;;;;;5059618;28;20487;-75
2022/12/11 09:45:21;;;;;;;1999.90;999.90;;;6.00;99.90;;;;;;5056559;28;20102;-74
2022/12/11 09:47:53;;;;;;;1999.90;999.90;;;5.10;99.90;;;;;;5069342;28;20032;-73
2022/12/11 09:50:26;;;;;;;1999.90;999.90;;;6.30;96.90;;;;;;5054273;28;20094;-74
2022/12/11 09:53:22;;;;;;;1999.90;999.90;;;6.80;99.90;;;;;;5070594;28;20054;-74
2022/12/11 09:56:18;;;;;;;1999.90;999.90;;;5.90;99.90;;;;;;5079125;28;20484;-74
2022/12/11 09:59:00;;;;;;;1999.90;999.90;;;4.80;99.90;;;;;;5084805;28;20165;-74
2022/12/11 10:01:48;;;;;;;1999.90;999.90;;;6.00;99.90;;;;;;5077220;28;20427;-74
2022/12/11 10:04:33;;;;;;;1999.90;999.90;;;5.60;99.90;;;;;;5075974;28;20489;-74
2022/12/11 10:07:29;;;;;;;1999.90;999.90;;;5.70;99.90;;;;;;5063998;28;20485;-74
2022/12/11 10:10:19;;;;;;;1999.90;999.90;;;5.30;99.90;;;;;;5059699;28;20496;-74
2022/12/11 10:13:16;;;;;;;1999.90;999.90;;;7.90;95.60;;;;;;5062878;28;20076;-72
2022/12/11 10:15:53;;;;;;;1999.90;999.90;;;7.00;99.90;;;;;;5053706;28;20058;-74
2022/12/11 10:18:22;;;;;;;1999.90;999.90;;;6.90;99.90;;;;;;5061861;28;20044;-75
2022/12/11 10:20:50;;;;;;;1999.90;999.90;;;6.80;99.90;;;;;;5051161;28;20053;-74
2022/12/11 10:23:20;;;;;;;1999.90;999.90;;;7.20;99.90;;;;;;5053150;28;20048;-75
2022/12/11 10:26:08;;;;;;;1999.90;999.90;;;6.90;99.90;;;;;;5051808;28;20487;-74
2022/12/11 10:28:35;;;;;;;1999.90;999.90;;;5.70;99.90;;;;;;5053940;28;20481;-74
2022/12/11 10:31:09;;;;;;;1999.90;999.90;;;7.30;99.90;;;;;;5052241;28;20040;-74
2022/12/11 10:33:44;;;;;;;1999.90;999.90;;;6.00;81.20;;;;;;5059778;28;20053;-74
2022/12/11 10:36:16;;;;;;;1999.90;999.90;;;4.00;75.30;;;;;;5071648;28;20059;-74
2022/12/11 10:38:44;;;;;;;1999.90;999.90;;;5.20;57.40;;;;;;5065258;28;20056;-76
2022/12/11 10:41:20;;;;;;;1999.90;999.90;;;8.20;1.00;;;;;;5051499;28;20087;-73
2022/12/11 10:43:50;;;;;;;1999.90;999.90;;;5.80;1.00;;;;;;5056998;28;20436;-73
2022/12/11 10:46:20;;;;;;;1999.90;999.90;;;8.20;1.00;;;;;;5072735;28;20105;-73
2022/12/11 10:48:53;;;;;;;1999.90;999.90;;;5.90;51.60;;;;;;5067561;28;20076;-73
2022/12/11 10:51:23;;;;;;;1999.90;999.90;;;7.10;25.70;;;;;;5051390;28;20489;-73
2022/12/11 10:53:56;;;;;;;1999.90;999.90;;;5.50;89.30;;;;;;5053651;28;20515;-73
2022/12/11 10:56:29;;;;;;;1999.90;999.90;;;6.70;99.90;;;;;;5067291;28;20076;-73
2022/12/11 10:58:56;;;;;;;1999.90;999.90;;;6.40;99.90;;;;;;5034260;28;20055;-73
2022/12/11 11:01:25;;;;;;;1999.90;999.90;;;5.40;37.30;;;;;;5052464;28;20105;-73
2022/12/11 11:03:57;;;;;;;1999.90;999.90;;;7.80;1.00;;;;;;5051657;28;20076;-73
2022/12/11 11:06:24;;;;;;;1999.90;999.90;;;5.50;1.00;;;;;;5051341;28;20052;-79
2022/12/11 11:08:58;;;;;;;1999.90;999.90;;;6.00;1.00;;;;;;5059840;28;20040;-73
2022/12/11 11:11:36;;;;;;;1999.90;999.90;;;5.20;1.00;;;;;;5068198;28;20397;-74
2022/12/11 11:14:18;;;;;;;1999.90;999.90;;;6.40;1.00;;;;;;5058712;28;20051;-73
2022/12/11 11:16:47;;;;;;;1999.90;999.90;;;5.90;1.00;;;;;;5051296;28;20385;-73
2022/12/11 11:19:31;;;;;;;1999.90;999.90;;;7.10;1.00;;;;;;5051991;28;20397;-74
2022/12/11 11:22:01;;;;;;;1999.90;999.90;;;3.50;1.00;;;;;;5051630;28;20115;-73
2022/12/11 11:24:35;;;;;;;1999.90;999.90;;;6.00;1.00;;;;;;5051067;28;20434;-73
2022/12/11 11:27:01;;;;;;;1999.90;999.90;;;7.70;1.00;;;;;;5051639;28;20052;-75
2022/12/11 11:29:32;;;;;;;1999.90;999.90;;;6.50;1.00;;;;;;5051749;28;20052;-73
2022/12/11 11:32:16;;;;;;;1999.90;999.90;;;9.20;99.90;;;;;;5051378;28;20052;-73
2022/12/11 11:34:42;;;;;;;1999.90;999.90;;;5.80;99.90;;;;;;5058567;28;20048;-74
2022/12/11 11:37:30;;;;;;;1999.90;999.90;;;5.70;99.90;;;;;;5055198;28;20052;-74
2022/12/11 11:40:05;;;;;;;1999.90;999.90;;;6.40;99.90;;;;;;5070774;28;20128;-73
2022/12/11 11:42:44;;;;;;;1999.90;999.90;;;5.90;99.90;;;;;;5069528;28;20045;-73
2022/12/11 11:45:21;;;;;;;1999.90;999.90;;;5.20;1.00;;;;;;5068998;28;20481;-74
2022/12/11 11:48:11;;;;;;;1999.90;999.90;;;5.80;99.90;;;;;;5034365;28;20082;-73
2022/12/11 11:50:44;;;;;;;1999.90;999.90;;;6.20;99.90;;;;;;5051390;28;20052;-74
2022/12/11 11:53:16;;;;;;;1999.90;999.90;;;7.80;99.90;;;;;;5053385;28;20111;-74
2022/12/11 11:56:11;;;;;;;1999.90;999.90;;;6.10;99.90;;;;;;5052627;28;20570;-74
2022/12/11 11:58:55;;;;;;;1999.90;999.90;;;6.30;99.90;;;;;;5069708;28;20049;-76
2022/12/11 12:01:21;;;;;;;1999.90;999.90;;;6.20;99.90;;;;;;5064643;28;20070;-73
2022/12/11 12:03:48;;;;;;;1999.90;999.90;;;8.20;99.90;;;;;;5075256;28;20115;-73
2022/12/11 12:06:40;;;;;;;1999.90;999.90;;;7.00;99.90;;;;;;5069541;28;20115;-74
2022/12/11 12:09:37;;;;;;;1999.90;999.90;;;6.50;99.90;;;;;;5072335;28;20044;-74
2022/12/11 12:12:28;;;;;;;1999.90;999.90;;;8.10;99.90;;;;;;5065237;28;20043;-74
2022/12/11 12:15:32;;;;;;;1999.90;999.90;;;5.90;99.90;;;;;;5081861;28;20044;-77
2022/12/11 12:18:36;;;;;;;1999.90;999.90;;;6.30;99.90;;;;;;5081231;28;20044;-73
2022/12/11 12:21:13;;;;;;;1999.90;999.90;;;6.20;99.90;;;;;;5070120;28;21493;-74
2022/12/11 12:24:11;;;;;;;1999.90;999.90;;;7.50;99.90;;;;;;5070502;28;20462;-74
2022/12/11 12:26:40;;;;;;;1999.90;999.90;;;7.90;99.90;;;;;;5057396;28;20063;-77
2022/12/11 12:29:27;;;;;;;1999.90;999.90;;;7.30;99.90;;;;;;5081241;28;20040;-74
2022/12/11 12:32:13;;;;;;;1999.90;999.90;;;7.20;99.90;;;;;;5075544;28;20079;-74
2022/12/11 12:35:28;;;;;;;1999.90;999.90;;;4.90;99.90;;;;;;5066002;28;20124;-74
2022/12/11 12:38:39;;;;;;;1999.90;999.90;;;6.30;99.90;;;;;;5073783;28;20071;-74
2022/12/11 12:41:46;;;;;;;1999.90;999.90;;;7.20;99.90;;;;;;5073635;28;20052;-73
2022/12/11 12:44:19;;;;;;;1999.90;999.90;;;6.70;99.90;;;;;;5053304;28;20045;-74